Terminal Aerodrome Forecast
Issued by NWS St Louis, MO

Current Version | Previous Version | Text Only | Print | Product List | Glossary On
Versions: 1 2 3 4 5 6 7 8 9 10 11 12 13 14 15 16 17 18 19 20 21 22 23 24 25 26 27 28 29 30 31
000
FTUS43 KLSX 290500
TAFSTL
TAF
KSTL 290520Z 2906/3012 14006KT P6SM SCT120 BKN250
     FM291500 18008KT P6SM SCT035 BKN120
     FM292100 18010KT P6SM VCTS SCT045CB BKN120
     FM300300 20007KT P6SM SCT050 BKN120=

USA.gov is the U.S. government's official web portal to all federal, state and local government web resources and services.